Time;durP1;ratioP1;P1;durP2;ratioP2;P2;SDS_P1;SDS_P2;PMS_P1;PMS_P2;Temp;Humidity;BMP_temperature;BMP_pressure;BME280_temperature;BME280_humidity;BME280_pressure;Samples;Min_cycle;Max_cycle;Signal;HPM_P1;HPM_P2
2022/03/27 00:02:18;;;;;;;41.65;24.70;;;10.50;64.70;;;;;;5033223;28;20045;-73
2022/03/27 00:04:46;;;;;;;46.53;24.98;;;10.50;64.60;;;;;;5033333;28;20049;-74
2022/03/27 00:07:14;;;;;;;38.45;24.60;;;10.30;64.40;;;;;;5033293;28;20047;-73
2022/03/27 00:09:41;;;;;;;37.67;22.23;;;9.90;65.60;;;;;;5032909;28;20049;-73
2022/03/27 00:12:09;;;;;;;44.53;22.02;;;9.90;65.80;;;;;;5033454;28;20140;-72
2022/03/27 00:14:36;;;;;;;36.13;19.20;;;10.10;65.70;;;;;;5015260;28;20045;-73
2022/03/27 00:17:03;;;;;;;37.70;21.75;;;10.10;64.20;;;;;;5014884;28;20042;-73
2022/03/27 00:19:31;;;;;;;40.95;22.85;;;9.90;65.00;;;;;;5032385;28;20398;-73
2022/03/27 00:21:58;;;;;;;43.85;22.25;;;9.60;67.10;;;;;;5032403;28;20045;-73
2022/03/27 00:24:27;;;;;;;37.75;21.65;;;9.40;69.00;;;;;;5032284;28;20393;-73
2022/03/27 00:26:55;;;;;;;31.30;17.92;;;9.50;68.20;;;;;;5032299;28;20095;-73
2022/03/27 00:29:22;;;;;;;28.95;18.17;;;9.70;66.90;;;;;;5032448;28;20041;-72
2022/03/27 00:31:49;;;;;;;28.88;16.48;;;9.90;65.10;;;;;;5032100;28;20508;-71
2022/03/27 00:34:19;;;;;;;30.10;18.20;;;10.10;64.30;;;;;;5032163;28;20442;-73
2022/03/27 00:36:48;;;;;;;24.48;16.52;;;10.00;64.30;;;;;;5032078;28;20041;-74
2022/03/27 00:39:15;;;;;;;31.13;18.58;;;9.90;63.80;;;;;;5014164;28;20527;-72
2022/03/27 00:41:45;;;;;;;28.90;18.33;;;9.80;64.70;;;;;;5032323;28;20040;-74
2022/03/27 00:44:13;;;;;;;29.25;18.92;;;9.30;66.70;;;;;;5032253;28;20049;-74
2022/03/27 00:46:41;;;;;;;36.80;19.50;;;9.70;66.80;;;;;;5032303;28;20044;-73
2022/03/27 00:49:08;;;;;;;32.65;18.38;;;9.80;67.10;;;;;;5015339;28;20444;-72
2022/03/27 00:51:35;;;;;;;29.70;18.38;;;10.00;66.80;;;;;;5032664;28;20038;-72
2022/03/27 00:54:03;;;;;;;34.22;20.00;;;10.00;66.90;;;;;;5015080;28;20045;-73
2022/03/27 00:56:31;;;;;;;38.28;20.13;;;9.90;67.70;;;;;;5014993;28;20072;-73
2022/03/27 00:58:58;;;;;;;29.85;20.55;;;9.80;68.10;;;;;;5032541;28;20037;-73
2022/03/27 01:01:38;;;;;;;39.33;19.10;;;9.20;69.20;;;;;;5031777;28;20041;-74
2022/03/27 01:04:07;;;;;;;29.67;18.98;;;9.40;70.20;;;;;;5031871;28;20045;-74
2022/03/27 01:06:40;;;;;;;32.45;20.17;;;9.40;69.60;;;;;;5014413;28;20048;-73
2022/03/27 01:12:15;;;;;;;29.52;17.10;;;9.10;69.90;;;;;;5032068;28;20382;-73
2022/03/27 01:14:44;;;;;;;29.60;17.15;;;9.20;69.10;;;;;;5031742;28;20497;-74
2022/03/27 01:17:15;;;;;;;40.80;17.20;;;9.30;68.30;;;;;;5023487;28;20405;-73
2022/03/27 01:19:49;;;;;;;29.55;17.25;;;9.30;68.00;;;;;;5031533;28;20081;-73
2022/03/27 01:22:17;;;;;;;23.95;14.93;;;8.90;68.70;;;;;;5031398;28;20065;-72
2022/03/27 01:24:47;;;;;;;26.80;16.20;;;8.90;69.10;;;;;;5031675;28;20123;-71
2022/03/27 01:27:14;;;;;;;23.20;15.65;;;8.70;69.30;;;;;;5032183;28;20044;-73
2022/03/27 01:29:41;;;;;;;25.20;15.27;;;8.70;70.90;;;;;;5035303;28;20119;-74
2022/03/27 01:32:14;;;;;;;27.05;16.35;;;8.80;71.70;;;;;;5035618;28;20050;-72
2022/03/27 01:34:47;;;;;;;30.73;17.15;;;8.90;71.40;;;;;;5035485;28;20519;-72
2022/03/27 01:37:15;;;;;;;26.30;15.35;;;8.70;72.80;;;;;;5035261;28;20452;-73
2022/03/27 01:39:43;;;;;;;28.27;15.07;;;8.80;71.70;;;;;;5035604;28;20041;-72
2022/03/27 01:42:10;;;;;;;25.88;15.23;;;8.80;70.70;;;;;;5035504;28;20045;-73
2022/03/27 01:44:38;;;;;;;30.65;15.15;;;8.60;71.10;;;;;;5035699;28;20405;-73
2022/03/27 01:47:05;;;;;;;27.25;14.98;;;8.70;71.70;;;;;;5036004;28;20067;-74
2022/03/27 01:49:33;;;;;;;29.40;15.68;;;8.60;71.10;;;;;;5035926;28;20044;-72
2022/03/27 01:52:00;;;;;;;29.40;15.43;;;8.50;71.20;;;;;;5035827;28;20405;-73
2022/03/27 01:54:27;;;;;;;28.83;15.10;;;8.40;72.60;;;;;;5035832;28;20052;-72
2022/03/27 01:56:55;;;;;;;25.38;15.13;;;8.50;73.30;;;;;;5035863;28;20421;-73
2022/03/27 01:59:22;;;;;;;30.48;16.15;;;8.30;73.30;;;;;;5035480;28;20052;-72
2022/03/27 02:01:50;;;;;;;23.95;14.32;;;8.50;73.50;;;;;;5034949;28;20041;-73
2022/03/27 02:04:18;;;;;;;32.58;15.43;;;8.40;73.80;;;;;;5035002;28;20065;-72
2022/03/27 02:06:45;;;;;;;31.70;16.73;;;7.80;74.90;;;;;;5035084;28;20050;-73
2022/03/27 02:09:13;;;;;;;27.75;15.15;;;8.00;76.70;;;;;;5034880;28;20485;-72
2022/03/27 02:11:42;;;;;;;28.83;15.77;;;8.30;76.10;;;;;;5034945;28;20068;-73
2022/03/27 02:14:10;;;;;;;28.35;15.10;;;8.00;76.70;;;;;;5035081;28;20037;-72
2022/03/27 02:16:38;;;;;;;28.00;15.93;;;8.00;77.40;;;;;;5035348;28;20397;-73
2022/03/27 02:19:08;;;;;;;26.08;16.17;;;8.30;77.00;;;;;;5017519;28;20394;-74
2022/03/27 02:21:41;;;;;;;24.35;15.05;;;8.10;77.10;;;;;;5035359;28;20057;-73
2022/03/27 02:24:10;;;;;;;29.42;15.55;;;7.80;79.30;;;;;;5017920;28;20041;-72
2022/03/27 02:26:44;;;;;;;24.67;14.85;;;7.60;81.40;;;;;;5035244;28;20045;-73
2022/03/27 02:29:16;;;;;;;26.17;13.82;;;7.90;81.90;;;;;;5035122;28;20041;-73
2022/03/27 02:31:44;;;;;;;22.60;13.23;;;7.80;80.70;;;;;;5034491;28;20125;-73
2022/03/27 02:34:12;;;;;;;21.15;13.05;;;7.70;81.70;;;;;;5034494;28;20397;-72
2022/03/27 02:36:40;;;;;;;24.02;14.05;;;7.80;81.30;;;;;;5034327;28;20037;-74
2022/03/27 02:39:07;;;;;;;21.38;12.57;;;7.90;81.10;;;;;;5033844;28;20034;-74
2022/03/27 02:41:35;;;;;;;27.63;14.02;;;7.50;82.50;;;;;;5034521;28;20163;-73
2022/03/27 02:44:02;;;;;;;24.08;13.68;;;7.70;82.80;;;;;;5034287;28;20438;-73
2022/03/27 02:46:29;;;;;;;27.73;14.38;;;7.90;82.40;;;;;;5034800;28;20045;-73
2022/03/27 02:48:57;;;;;;;28.52;14.20;;;7.90;81.50;;;;;;5034706;28;20108;-73
2022/03/27 02:51:24;;;;;;;27.40;13.13;;;7.90;81.80;;;;;;5034669;28;20064;-73
2022/03/27 02:53:51;;;;;;;27.90;14.35;;;8.10;81.80;;;;;;5034627;28;20038;-73
2022/03/27 02:56:19;;;;;;;24.05;14.43;;;8.00;81.70;;;;;;5034419;28;20274;-73
2022/03/27 02:58:47;;;;;;;23.20;13.73;;;8.00;81.70;;;;;;5034629;28;20409;-72
2022/03/27 03:01:14;;;;;;;30.95;14.20;;;7.70;82.50;;;;;;5034284;28;20052;-72
2022/03/27 03:03:42;;;;;;;22.08;13.57;;;7.70;83.60;;;;;;5034500;28;20419;-72
2022/03/27 03:06:09;;;;;;;22.55;12.73;;;7.70;83.60;;;;;;5034258;28;20047;-72
2022/03/27 03:08:40;;;;;;;26.33;13.95;;;7.60;84.60;;;;;;5034349;28;20042;-72
2022/03/27 03:11:08;;;;;;;;;;;7.50;86.70;;;;;;5034812;28;20120;-73
2022/03/27 03:13:35;;;;;;;21.48;12.93;;;7.60;86.90;;;;;;5034471;28;20423;-70
2022/03/27 03:16:03;;;;;;;25.55;13.25;;;7.60;86.90;;;;;;5033739;28;20049;-72
2022/03/27 03:18:34;;;;;;;24.42;13.40;;;7.60;87.30;;;;;;5033873;28;20048;-73
2022/03/27 03:21:02;;;;;;;31.02;13.50;;;7.80;86.90;;;;;;5033692;28;20067;-73
2022/03/27 03:23:29;;;;;;;24.55;13.32;;;7.90;86.00;;;;;;5033493;28;20047;-72
2022/03/27 03:25:56;;;;;;;30.90;13.65;;;7.90;86.00;;;;;;5033483;28;20454;-73
2022/03/27 03:28:35;;;;;;;22.48;13.15;;;7.80;86.80;;;;;;5033382;28;20041;-73
2022/03/27 03:31:03;;;;;;;23.50;13.77;;;7.90;86.80;;;;;;5033374;28;20454;-73
2022/03/27 03:33:31;;;;;;;24.08;13.80;;;7.80;87.00;;;;;;5033514;28;20052;-76
2022/03/27 03:35:58;;;;;;;18.52;13.00;;;7.70;88.20;;;;;;5033135;28;20048;-74
2022/03/27 03:38:26;;;;;;;22.90;13.55;;;7.70;88.90;;;;;;5033353;28;20080;-74
2022/03/27 03:40:53;;;;;;;27.80;14.32;;;7.60;89.40;;;;;;5033324;28;20045;-74
2022/03/27 03:43:20;;;;;;;23.95;12.68;;;7.40;90.20;;;;;;5033119;28;20049;-73
2022/03/27 03:45:48;;;;;;;30.02;14.25;;;7.50;90.20;;;;;;5033242;28;20038;-72
2022/03/27 03:48:16;;;;;;;21.08;13.68;;;7.50;90.60;;;;;;5033250;28;20413;-73
2022/03/27 03:50:43;;;;;;;23.60;13.55;;;7.00;91.50;;;;;;5032293;28;20393;-72
2022/03/27 03:53:10;;;;;;;23.52;14.43;;;7.10;92.70;;;;;;5033045;28;20060;-72
2022/03/27 03:55:38;;;;;;;25.58;13.57;;;7.20;92.60;;;;;;5032913;28;20382;-74
2022/03/27 03:58:06;;;;;;;22.88;13.30;;;7.30;92.60;;;;;;5033264;28;20052;-74
2022/03/27 04:00:33;;;;;;;28.02;13.63;;;7.60;92.30;;;;;;5032850;28;20116;-73
2022/03/27 04:03:01;;;;;;;26.85;13.90;;;7.50;91.70;;;;;;5032725;28;20041;-73
2022/03/27 04:05:29;;;;;;;25.52;14.52;;;7.40;92.50;;;;;;5032567;28;20044;-73
2022/03/27 04:07:56;;;;;;;20.00;13.68;;;7.50;92.40;;;;;;5032693;28;20056;-74
2022/03/27 04:10:23;;;;;;;24.50;14.23;;;7.10;93.80;;;;;;5032691;28;20049;-74
2022/03/27 04:12:50;;;;;;;23.48;14.02;;;6.80;93.90;;;;;;5033092;28;20124;-73
2022/03/27 04:15:18;;;;;;;26.15;12.88;;;6.60;94.60;;;;;;5033398;28;20059;-74
2022/03/27 04:17:47;;;;;;;22.77;13.40;;;6.70;94.70;;;;;;5032550;28;20037;-74
2022/03/27 04:20:17;;;;;;;29.33;14.38;;;6.80;94.30;;;;;;5032223;28;20054;-73
2022/03/27 04:22:45;;;;;;;23.63;12.90;;;7.00;94.10;;;;;;5032655;28;20042;-74
2022/03/27 04:25:15;;;;;;;23.70;13.65;;;7.00;94.10;;;;;;5032412;28;20057;-74
2022/03/27 04:27:43;;;;;;;20.53;12.40;;;6.80;94.10;;;;;;5032049;28;20108;-72
2022/03/27 04:30:12;;;;;;;20.10;11.80;;;6.90;94.30;;;;;;5032458;28;20048;-73
2022/03/27 04:32:40;;;;;;;22.67;12.20;;;6.80;94.40;;;;;;5032391;28;20045;-74
2022/03/27 04:35:09;;;;;;;23.17;13.13;;;6.80;94.50;;;;;;5032612;28;20052;-74
2022/03/27 04:37:41;;;;;;;26.27;12.57;;;6.80;94.70;;;;;;5014888;28;20059;-73
2022/03/27 04:40:13;;;;;;;27.25;12.48;;;6.80;94.70;;;;;;5032121;28;20437;-73
2022/03/27 04:42:41;;;;;;;21.17;12.75;;;6.80;94.60;;;;;;5032785;28;20041;-75
2022/03/27 04:45:10;;;;;;;16.75;11.30;;;6.90;94.40;;;;;;5032230;28;20481;-72
2022/03/27 04:47:39;;;;;;;23.63;11.60;;;6.90;94.40;;;;;;5032094;28;20111;-74
2022/03/27 04:50:08;;;;;;;20.70;12.45;;;6.80;94.60;;;;;;5032121;28;20060;-74
2022/03/27 04:52:36;;;;;;;21.58;12.63;;;6.60;95.40;;;;;;5032293;28;20048;-72
2022/03/27 04:55:05;;;;;;;18.48;11.90;;;6.70;95.40;;;;;;5031905;28;20047;-73
2022/03/27 04:57:38;;;;;;;22.60;12.43;;;6.90;94.90;;;;;;5032277;28;20128;-73
2022/03/27 05:00:10;;;;;;;18.13;11.88;;;7.00;94.40;;;;;;5032088;28;20041;-74
2022/03/27 05:02:39;;;;;;;21.25;12.63;;;7.20;94.40;;;;;;5032429;28;20577;-73
2022/03/27 05:05:10;;;;;;;21.63;12.05;;;7.10;94.70;;;;;;5032507;28;20049;-73
2022/03/27 05:07:39;;;;;;;21.50;12.32;;;7.20;94.10;;;;;;5032227;28;20100;-72
2022/03/27 05:10:08;;;;;;;20.30;12.43;;;7.00;94.00;;;;;;5032191;28;20083;-73
2022/03/27 05:12:36;;;;;;;19.75;11.88;;;6.70;95.00;;;;;;5014883;28;20050;-73
2022/03/27 05:15:04;;;;;;;20.67;12.25;;;6.90;95.40;;;;;;5031990;28;20397;-74
2022/03/27 05:17:31;;;;;;;23.35;12.77;;;7.30;94.80;;;;;;5031556;28;20489;-73
2022/03/27 05:20:01;;;;;;;20.75;13.32;;;7.50;94.00;;;;;;5031453;28;20116;-74
2022/03/27 05:22:29;;;;;;;20.38;12.48;;;7.40;94.10;;;;;;4998336;28;20111;-72
2022/03/27 05:24:57;;;;;;;19.73;11.80;;;7.60;93.80;;;;;;4998354;28;20137;-72
2022/03/27 05:27:24;;;;;;;18.92;11.70;;;7.80;93.10;;;;;;5031708;28;20482;-73
2022/03/27 05:29:51;;;;;;;17.00;12.13;;;8.00;92.60;;;;;;5031717;28;20049;-72
2022/03/27 05:32:19;;;;;;;19.98;12.23;;;7.50;93.70;;;;;;5031519;28;20038;-73
2022/03/27 05:34:46;;;;;;;19.42;12.40;;;7.80;93.70;;;;;;5031507;28;20045;-73
2022/03/27 05:37:13;;;;;;;23.23;13.35;;;7.90;93.40;;;;;;5031948;28;20409;-73
2022/03/27 05:39:41;;;;;;;21.35;12.60;;;8.00;93.10;;;;;;5031578;28;20518;-73
2022/03/27 05:42:08;;;;;;;25.05;12.73;;;7.90;93.00;;;;;;5031387;28;20562;-72
2022/03/27 05:44:35;;;;;;;19.42;13.63;;;7.80;93.60;;;;;;5031486;28;20186;-72
2022/03/27 05:47:03;;;;;;;21.55;12.50;;;8.00;93.00;;;;;;5031917;28;20052;-73
2022/03/27 05:49:30;;;;;;;19.42;12.30;;;8.00;93.50;;;;;;5031981;28;20060;-73
2022/03/27 05:51:57;;;;;;;22.30;12.50;;;8.10;93.60;;;;;;5032147;28;20045;-72
2022/03/27 05:54:24;;;;;;;22.60;14.15;;;7.90;94.20;;;;;;5032047;28;20035;-72
2022/03/27 05:56:57;;;;;;;26.20;13.48;;;7.80;94.40;;;;;;5031916;28;20443;-74
2022/03/27 05:59:24;;;;;;;25.25;14.55;;;7.50;95.40;;;;;;5031899;28;20048;-73
2022/03/27 06:01:51;;;;;;;27.90;14.10;;;7.60;95.70;;;;;;5031827;28;20049;-73
2022/03/27 06:04:19;;;;;;;25.08;14.98;;;7.80;95.70;;;;;;5031710;28;20049;-73
2022/03/27 06:06:46;;;;;;;26.33;15.20;;;7.90;95.60;;;;;;5031868;28;20421;-73
2022/03/27 06:09:13;;;;;;;25.70;15.40;;;7.80;95.40;;;;;;5032215;28;20128;-75
2022/03/27 06:11:40;;;;;;;27.10;15.15;;;7.70;96.00;;;;;;5031986;28;20046;-74
2022/03/27 06:14:08;;;;;;;23.55;13.95;;;7.70;96.10;;;;;;5033878;28;20304;-74
2022/03/27 06:16:35;;;;;;;25.08;13.75;;;7.70;95.90;;;;;;5034854;28;20037;-75
2022/03/27 06:19:02;;;;;;;22.73;13.60;;;7.70;95.80;;;;;;5034404;28;20046;-72
2022/03/27 06:21:29;;;;;;;20.58;12.52;;;7.90;95.60;;;;;;5034702;28;20056;-74
2022/03/27 06:23:57;;;;;;;24.33;13.57;;;7.80;95.20;;;;;;5034809;28;20413;-75
2022/03/27 06:26:25;;;;;;;21.92;14.15;;;7.30;96.60;;;;;;5017063;28;20072;-74
2022/03/27 06:28:52;;;;;;;34.75;15.23;;;7.50;96.30;;;;;;5034886;28;20052;-74
2022/03/27 06:31:19;;;;;;;32.20;15.18;;;7.40;97.00;;;;;;5034690;28;20048;-73
2022/03/27 06:33:47;;;;;;;25.05;15.65;;;7.60;96.70;;;;;;5034319;28;20044;-73
2022/03/27 06:36:14;;;;;;;32.42;15.23;;;7.70;95.80;;;;;;5034352;28;20041;-73
2022/03/27 06:38:42;;;;;;;22.50;13.10;;;7.80;95.70;;;;;;5034243;28;20499;-73
2022/03/27 06:41:09;;;;;;;21.48;12.82;;;8.20;95.10;;;;;;5034201;28;20075;-74
2022/03/27 06:43:37;;;;;;;20.48;13.32;;;8.00;95.80;;;;;;5034570;28;20121;-75
2022/03/27 06:46:05;;;;;;;20.38;12.77;;;8.20;95.30;;;;;;5034653;28;20042;-74
2022/03/27 06:48:33;;;;;;;26.77;13.18;;;8.20;94.20;;;;;;5034676;28;20048;-73
2022/03/27 06:51:00;;;;;;;27.02;14.13;;;8.10;94.90;;;;;;5034807;28;20047;-72
2022/03/27 06:53:27;;;;;;;25.83;14.73;;;8.30;94.20;;;;;;5034812;28;20116;-72
2022/03/27 06:55:54;;;;;;;23.48;14.20;;;8.30;94.60;;;;;;5016976;28;20581;-73
2022/03/27 06:58:22;;;;;;;29.25;14.32;;;8.30;94.70;;;;;;5034533;28;20465;-73
2022/03/27 07:03:35;;;;;;;28.67;15.23;;;8.90;94.50;;;;;;5033898;28;20049;-73
2022/03/27 07:06:02;;;;;;;24.85;13.77;;;8.90;93.80;;;;;;5033918;28;20400;-74
2022/03/27 07:08:30;;;;;;;28.98;14.43;;;9.00;93.30;;;;;;5033663;28;20037;-74
2022/03/27 07:10:57;;;;;;;28.55;15.60;;;8.90;93.70;;;;;;5033801;28;20053;-74
2022/03/27 07:13:25;;;;;;;28.08;16.00;;;8.90;93.60;;;;;;5033864;28;20051;-75
2022/03/27 07:15:52;;;;;;;32.70;17.30;;;9.10;93.90;;;;;;5033955;28;20067;-74
2022/03/27 07:18:20;;;;;;;30.95;16.80;;;8.90;94.30;;;;;;5015820;28;20464;-73
2022/03/27 07:20:48;;;;;;;25.67;15.85;;;9.20;93.90;;;;;;5033714;28;20382;-73
2022/03/27 07:23:19;;;;;;;29.15;17.20;;;9.20;94.30;;;;;;5033468;28;20055;-74
2022/03/27 07:25:52;;;;;;;34.28;16.02;;;9.30;94.30;;;;;;5032301;28;20037;-74
2022/03/27 07:28:20;;;;;;;31.20;16.90;;;9.40;94.60;;;;;;5033417;28;20125;-76
2022/03/27 07:30:48;;;;;;;33.25;16.15;;;9.50;94.00;;;;;;5033268;28;20473;-74
2022/03/27 07:33:16;;;;;;;24.65;15.35;;;9.70;93.80;;;;;;5033413;28;20048;-75
2022/03/27 07:35:44;;;;;;;34.22;17.75;;;9.80;92.10;;;;;;5033441;28;20496;-74
2022/03/27 07:38:11;;;;;;;24.52;15.30;;;10.00;91.70;;;;;;5024859;28;20328;-74
2022/03/27 07:40:39;;;;;;;28.05;16.83;;;10.10;91.70;;;;;;5033367;28;20037;-74
2022/03/27 07:43:06;;;;;;;29.25;16.70;;;10.20;91.30;;;;;;5033710;28;20053;-73
2022/03/27 07:45:35;;;;;;;24.13;15.88;;;10.30;90.60;;;;;;5015290;28;20600;-73
2022/03/27 07:48:03;;;;;;;28.10;16.15;;;10.20;90.80;;;;;;5033251;28;20043;-74
2022/03/27 07:50:31;;;;;;;25.70;15.88;;;10.40;90.80;;;;;;5033182;28;20041;-72
2022/03/27 07:53:00;;;;;;;31.27;16.50;;;10.60;90.20;;;;;;5033234;28;20041;-73
2022/03/27 07:55:27;;;;;;;25.50;15.25;;;10.60;87.30;;;;;;5032945;28;20045;-73
2022/03/27 07:57:58;;;;;;;24.45;15.13;;;10.40;87.10;;;;;;5033335;28;20384;-75
2022/03/27 08:00:27;;;;;;;24.98;16.20;;;10.70;86.30;;;;;;5032938;28;20041;-74
2022/03/27 08:02:55;;;;;;;23.93;15.00;;;10.90;83.00;;;;;;5033088;28;20103;-73
2022/03/27 08:05:23;;;;;;;25.55;13.88;;;10.80;81.10;;;;;;5032498;28;20390;-75
2022/03/27 08:07:50;;;;;;;23.95;14.23;;;10.80;80.20;;;;;;5032693;28;20120;-74
2022/03/27 08:10:18;;;;;;;25.70;14.88;;;11.10;80.00;;;;;;5032688;28;20430;-74
2022/03/27 08:12:46;;;;;;;24.70;14.43;;;11.10;79.30;;;;;;5032777;28;20481;-73
2022/03/27 08:15:14;;;;;;;21.30;14.20;;;11.20;78.70;;;;;;5032581;28;20045;-74
2022/03/27 08:17:51;;;;;;;25.60;13.02;;;11.30;78.30;;;;;;5032716;28;20488;-74
2022/03/27 08:20:19;;;;;;;25.00;13.98;;;11.40;76.10;;;;;;5032403;28;20052;-71
2022/03/27 08:22:46;;;;;;;24.55;15.18;;;11.40;76.20;;;;;;5032547;28;20045;-74
2022/03/27 08:26:55;;;;;;;26.75;12.82;;;11.60;76.10;;;;;;5032395;28;20041;-73
2022/03/27 08:28:00;;;;;;;22.48;12.90;;;11.70;73.40;;;;;;5032144;28;20047;-73
2022/03/27 08:30:28;;;;;;;20.65;11.73;;;11.90;71.00;;;;;;5032262;28;20401;-73
2022/03/27 08:32:55;;;;;;;21.15;13.00;;;12.00;68.90;;;;;;5031980;28;20045;-74
2022/03/27 08:35:22;;;;;;;25.10;13.23;;;12.30;67.70;;;;;;5032139;28;20051;-74
2022/03/27 08:37:50;;;;;;;24.67;13.27;;;12.40;68.40;;;;;;5031643;28;20046;-74
2022/03/27 08:40:18;;;;;;;20.52;13.35;;;12.50;68.40;;;;;;5032003;28;20048;-73
2022/03/27 08:42:45;;;;;;;26.30;14.20;;;12.60;68.10;;;;;;5032479;28;20511;-71
2022/03/27 08:45:13;;;;;;;23.27;13.13;;;12.70;66.50;;;;;;5032232;28;20042;-75
2022/03/27 08:47:41;;;;;;;23.38;13.73;;;12.90;67.30;;;;;;5032482;28;20045;-74
2022/03/27 08:50:43;;;;;;;22.67;12.98;;;13.30;66.50;;;;;;5032681;28;20042;-74
2022/03/27 08:53:12;;;;;;;20.00;12.48;;;13.40;64.70;;;;;;5015026;28;20117;-74
2022/03/27 08:55:55;;;;;;;21.13;12.70;;;13.40;63.90;;;;;;5032888;28;20384;-73
2022/03/27 08:58:34;;;;;;;23.48;13.68;;;13.60;63.60;;;;;;5032405;28;20515;-74
2022/03/27 09:01:04;;;;;;;26.05;14.38;;;13.80;63.90;;;;;;5032303;28;20037;-72
2022/03/27 09:03:32;;;;;;;23.83;13.43;;;13.70;64.20;;;;;;5032090;28;20416;-73
2022/03/27 09:06:01;;;;;;;21.08;13.07;;;13.90;64.00;;;;;;5031774;28;20492;-72
2022/03/27 09:08:34;;;;;;;19.90;12.90;;;14.20;63.10;;;;;;5031596;28;20069;-73
2022/03/27 09:11:03;;;;;;;19.90;12.85;;;14.20;62.60;;;;;;5031764;28;20037;-74
2022/03/27 09:13:32;;;;;;;21.17;12.93;;;14.20;62.40;;;;;;5031840;28;20405;-73
2022/03/27 09:16:02;;;;;;;18.15;12.30;;;14.40;61.90;;;;;;5031432;28;20049;-72
2022/03/27 09:18:41;;;;;;;26.43;12.57;;;14.50;60.60;;;;;;5013641;28;20104;-75
2022/03/27 09:21:14;;;;;;;21.98;12.98;;;14.50;60.80;;;;;;5031361;28;20432;-74
2022/03/27 09:23:41;;;;;;;18.83;12.30;;;14.70;60.40;;;;;;5031752;28;20459;-74
2022/03/27 09:26:16;;;;;;;17.90;11.70;;;14.80;60.40;;;;;;5031610;28;20049;-74
2022/03/27 09:28:55;;;;;;;23.08;12.55;;;15.10;61.10;;;;;;5031316;28;20064;-74
2022/03/27 09:31:26;;;;;;;22.50;12.63;;;15.20;59.20;;;;;;5031343;28;20295;-74
2022/03/27 09:34:02;;;;;;;19.45;11.90;;;15.70;59.90;;;;;;5013824;28;20549;-76
2022/03/27 09:36:37;;;;;;;22.63;11.80;;;15.60;59.00;;;;;;5031693;28;20489;-74
2022/03/27 09:39:19;;;;;;;23.45;12.32;;;15.70;58.30;;;;;;5031418;28;20037;-73
2022/03/27 09:41:53;;;;;;;19.55;11.50;;;15.70;57.20;;;;;;5031627;28;20300;-75
2022/03/27 09:44:29;;;;;;;16.92;11.73;;;15.80;56.60;;;;;;5031364;28;20041;-73
2022/03/27 09:47:06;;;;;;;19.67;11.95;;;16.30;58.00;;;;;;5031260;28;20436;-72
2022/03/27 09:49:34;;;;;;;20.77;12.23;;;16.50;57.20;;;;;;5034085;28;20045;-73
2022/03/27 09:52:16;;;;;;;24.45;12.13;;;16.90;56.00;;;;;;5035317;28;20622;-73
2022/03/27 09:54:49;;;;;;;19.23;10.60;;;17.00;55.60;;;;;;5034609;28;20425;-74
2022/03/27 09:57:34;;;;;;;19.42;11.50;;;16.90;55.90;;;;;;5035262;28;20384;-74
2022/03/27 10:00:13;;;;;;;18.50;12.10;;;17.20;55.50;;;;;;5034952;28;20095;-74
2022/03/27 10:02:42;;;;;;;18.40;11.05;;;17.40;56.20;;;;;;5035085;28;20044;-74
2022/03/27 10:05:11;;;;;;;17.58;11.20;;;17.30;54.40;;;;;;5034855;28;20041;-74
2022/03/27 10:07:49;;;;;;;19.48;10.38;;;17.50;53.80;;;;;;5034828;28;20493;-74
2022/03/27 10:10:21;;;;;;;16.15;10.02;;;17.70;53.50;;;;;;5034740;28;20132;-73
2022/03/27 10:12:50;;;;;;;18.83;10.95;;;17.80;53.70;;;;;;5034900;28;20038;-74
2022/03/27 10:15:20;;;;;;;15.32;10.32;;;18.00;53.40;;;;;;5034727;28;20046;-74
2022/03/27 10:18:05;;;;;;;22.45;10.68;;;18.10;52.10;;;;;;5034592;28;20096;-74
2022/03/27 10:20:38;;;;;;;17.27;11.13;;;18.30;52.40;;;;;;5034593;28;20367;-74
2022/03/27 10:23:09;;;;;;;18.13;10.55;;;18.60;52.90;;;;;;5017150;28;20326;-74
2022/03/27 10:25:52;;;;;;;16.95;10.15;;;18.70;52.30;;;;;;5034627;28;20405;-73
2022/03/27 10:28:20;;;;;;;20.95;10.55;;;18.70;49.80;;;;;;5016553;28;20568;-74
2022/03/27 10:30:52;;;;;;;19.23;9.95;;;19.00;50.20;;;;;;5034751;28;20386;-75
2022/03/27 10:33:25;;;;;;;14.02;9.90;;;18.90;49.20;;;;;;5035208;28;20052;-76
2022/03/27 10:36:14;;;;;;;18.50;10.52;;;19.10;49.50;;;;;;5034931;28;20041;-74
2022/03/27 10:38:57;;;;;;;20.38;11.15;;;19.30;50.10;;;;;;5034915;28;20451;-75
2022/03/27 10:42:07;;;;;;;14.73;9.48;;;19.30;49.70;;;;;;5001260;28;20049;-74
2022/03/27 10:44:44;;;;;;;16.25;9.32;;;19.50;49.60;;;;;;5035054;28;20121;-73
2022/03/27 10:47:20;;;;;;;15.93;8.77;;;19.90;47.70;;;;;;5034134;28;20041;-73
2022/03/27 10:50:04;;;;;;;14.25;8.13;;;20.00;47.70;;;;;;5034505;28;20389;-74
2022/03/27 10:52:56;;;;;;;15.07;8.82;;;20.20;47.30;;;;;;5034520;28;20362;-74
2022/03/27 10:55:37;;;;;;;11.52;7.95;;;20.20;44.50;;;;;;5016582;28;20061;-73
2022/03/27 10:58:56;;;;;;;13.98;8.43;;;20.10;43.40;;;;;;5033758;28;20068;-74
2022/03/27 11:01:23;;;;;;;15.88;10.07;;;20.10;45.10;;;;;;4984507;28;20041;-75
2022/03/27 11:04:04;;;;;;;16.33;7.93;;;20.70;46.10;;;;;;5033914;28;20076;-74
2022/03/27 11:06:37;;;;;;;18.15;8.38;;;20.90;44.80;;;;;;5033604;28;20089;-75
2022/03/27 11:09:07;;;;;;;12.15;8.65;;;21.00;43.90;;;;;;5033607;28;20497;-75
2022/03/27 11:11:37;;;;;;;16.52;8.45;;;21.00;43.40;;;;;;5033914;28;20144;-74
2022/03/27 11:14:08;;;;;;;12.05;7.85;;;21.30;43.10;;;;;;5033875;28;20070;-74
2022/03/27 11:17:07;;;;;;;12.55;7.85;;;21.40;42.10;;;;;;5033493;28;20041;-73
2022/03/27 11:19:41;;;;;;;12.32;7.13;;;21.30;41.20;;;;;;5033423;28;20068;-74
2022/03/27 11:22:40;;;;;;;15.57;7.72;;;21.40;41.50;;;;;;5033425;28;20056;-73
2022/03/27 11:25:31;;;;;;;14.30;7.95;;;21.10;38.50;;;;;;5033648;28;20048;-73
2022/03/27 11:28:06;;;;;;;15.13;7.68;;;20.80;38.70;;;;;;5033322;28;20043;-73
2022/03/27 11:30:35;;;;;;;15.25;7.82;;;20.80;37.70;;;;;;5033376;28;20048;-74
2022/03/27 11:33:20;;;;;;;14.77;8.18;;;21.10;37.90;;;;;;5033517;28;20421;-74
2022/03/27 11:36:09;;;;;;;16.23;8.00;;;21.20;38.20;;;;;;5033284;28;20042;-75
2022/03/27 11:38:53;;;;;;;15.68;8.30;;;21.10;37.60;;;;;;5033016;28;20095;-74
2022/03/27 11:41:34;;;;;;;18.45;9.40;;;21.00;38.40;;;;;;5032951;28;20394;-73
2022/03/27 11:44:22;;;;;;;12.80;7.60;;;21.50;39.00;;;;;;5033296;28;20049;-74
2022/03/27 11:46:51;;;;;;;12.23;7.93;;;21.00;37.30;;;;;;5033273;28;20096;-75
2022/03/27 11:49:35;;;;;;;15.77;7.80;;;21.40;37.80;;;;;;5033468;28;20490;-74
2022/03/27 11:52:06;;;;;;;13.65;8.25;;;21.90;37.00;;;;;;5033034;28;20405;-75
2022/03/27 11:54:35;;;;;;;17.90;8.05;;;22.40;37.60;;;;;;5033014;28;20061;-74
2022/03/27 11:57:03;;;;;;;15.02;8.80;;;22.70;37.60;;;;;;5032954;28;20052;-76
2022/03/27 11:59:42;;;;;;;12.10;7.45;;;21.90;37.10;;;;;;5032836;28;20553;-74
2022/03/27 12:02:10;;;;;;;16.45;8.52;;;21.70;37.40;;;;;;5032477;28;20409;-74
2022/03/27 12:05:01;;;;;;;13.07;8.10;;;22.10;37.60;;;;;;5032723;28;20037;-74
2022/03/27 12:07:48;;;;;;;12.75;7.78;;;22.30;36.90;;;;;;5032311;28;20045;-74
2022/03/27 12:10:16;;;;;;;13.75;7.88;;;21.30;35.80;;;;;;5032322;28;20382;-74
2022/03/27 12:12:57;;;;;;;12.98;7.47;;;21.50;36.90;;;;;;5032393;28;20067;-76
2022/03/27 12:15:52;;;;;;;13.63;8.35;;;21.90;37.00;;;;;;5032454;28;20393;-72
2022/03/27 12:18:36;;;;;;;12.02;7.60;;;21.90;36.70;;;;;;5014773;28;20080;-75
2022/03/27 12:21:11;;;;;;;14.65;8.38;;;21.70;36.30;;;;;;5032278;28;20049;-75
2022/03/27 12:23:55;;;;;;;14.43;8.43;;;21.90;35.60;;;;;;5032270;28;20053;-75
2022/03/27 12:32:05;;;;;;;16.52;8.32;;;24.30;35.10;;;;;;5032807;28;20134;-73
2022/03/27 12:34:34;;;;;;;12.88;7.40;;;24.60;33.90;;;;;;5015224;28;20445;-74
2022/03/27 12:37:25;;;;;;;14.80;8.27;;;25.90;33.70;;;;;;5032633;28;20046;-74
2022/03/27 12:39:52;;;;;;;14.65;7.95;;;25.80;33.00;;;;;;5032736;28;20041;-73
2022/03/27 12:42:36;;;;;;;12.57;7.88;;;26.10;31.70;;;;;;5032486;28;20247;-75
2022/03/27 12:45:13;;;;;;;11.90;7.85;;;26.30;31.20;;;;;;5032505;28;20489;-75
2022/03/27 12:47:40;;;;;;;13.30;7.65;;;27.30;32.00;;;;;;5032145;28;20052;-74
2022/03/27 12:50:10;;;;;;;13.30;8.10;;;27.90;30.90;;;;;;5032181;28;20048;-74
2022/03/27 12:52:52;;;;;;;20.27;8.15;;;28.40;30.60;;;;;;5031922;28;20407;-74
2022/03/27 12:55:48;;;;;;;12.75;7.80;;;29.00;30.50;;;;;;5031991;28;20068;-75
2022/03/27 12:58:21;;;;;;;13.73;7.45;;;29.50;30.40;;;;;;5031888;28;20062;-74
2022/03/27 13:01:09;;;;;;;14.20;7.70;;;29.00;30.70;;;;;;5014277;28;20493;-75
2022/03/27 13:03:39;;;;;;;15.82;10.68;;;29.00;30.90;;;;;;5031853;28;20095;-72
2022/03/27 13:06:09;;;;;;;13.45;8.60;;;30.10;30.60;;;;;;5031872;28;20045;-73
2022/03/27 13:08:39;;;;;;;12.88;7.72;;;31.40;30.20;;;;;;5031592;28;20046;-73